<?xml version="1.0" encoding="UTF-8" standalone="no" ?>
<gpx xmlns="http://www.topografix.com/GPX/1/1" xmlns:xsi="http://www.w3.org/2001/XMLSchema-instance" xsi:schemaLocation="http://www.topografix.com/GPX/1/1 http://www.topografix.com/GPX/1/1/gpx.xsd" version="1.1" creator="VisuGPX - https://www.visugpx.com">
  <metadata>
    <name>13537233-Ile d'olonne la salaire Marais</name>
  </metadata>
  <trk>
    <name><![CDATA[13537233-Ile d'olonne la salaire Marais]]></name>
    <trkseg>
      <trkpt lat="46.58181" lon="-1.80633">
        <ele>3</ele>
        <time>2021-09-29T09:21:52Z</time>
      </trkpt>
      <trkpt lat="46.58149" lon="-1.80523">
        <ele>1</ele>
        <time>2021-09-29T09:23:42Z</time>
      </trkpt>
      <trkpt lat="46.58109" lon="-1.80124">
        <ele>4</ele>
        <time>2021-09-29T09:29:51Z</time>
      </trkpt>
      <trkpt lat="46.58161" lon="-1.80073">
        <ele>6</ele>
        <time>2021-09-29T09:31:15Z</time>
      </trkpt>
      <trkpt lat="46.58085" lon="-1.79905">
        <ele>4</ele>
        <time>2021-09-29T09:34:20Z</time>
      </trkpt>
      <trkpt lat="46.58022" lon="-1.79712">
        <ele>3</ele>
        <time>2021-09-29T09:37:36Z</time>
      </trkpt>
      <trkpt lat="46.57973" lon="-1.795">
        <ele>5</ele>
        <time>2021-09-29T09:41:01Z</time>
      </trkpt>
      <trkpt lat="46.57972" lon="-1.793">
        <ele>7</ele>
        <time>2021-09-29T09:44:04Z</time>
      </trkpt>
      <trkpt lat="46.57898" lon="-1.79307">
        <ele>6</ele>
        <time>2021-09-29T09:45:43Z</time>
      </trkpt>
      <trkpt lat="46.57646" lon="-1.79202">
        <ele>7</ele>
        <time>2021-09-29T09:51:33Z</time>
      </trkpt>
      <trkpt lat="46.57479" lon="-1.79079">
        <ele>4</ele>
        <time>2021-09-29T09:55:43Z</time>
      </trkpt>
      <trkpt lat="46.57292" lon="-1.79184">
        <ele>1</ele>
        <time>2021-09-29T10:00:10Z</time>
      </trkpt>
      <trkpt lat="46.57283" lon="-1.79551">
        <ele>1</ele>
        <time>2021-09-29T10:05:47Z</time>
      </trkpt>
      <trkpt lat="46.56911" lon="-1.79802">
        <ele>3</ele>
        <time>2021-09-29T10:14:54Z</time>
      </trkpt>
      <trkpt lat="46.56917" lon="-1.79865">
        <ele>2</ele>
        <time>2021-09-29T10:15:53Z</time>
      </trkpt>
      <trkpt lat="46.56858" lon="-1.7994">
        <ele>2</ele>
        <time>2021-09-29T10:17:37Z</time>
      </trkpt>
      <trkpt lat="46.5677" lon="-1.79601">
        <ele>2.1</ele>
        <time>2021-09-29T10:23:10Z</time>
      </trkpt>
      <trkpt lat="46.56687" lon="-1.79605">
        <ele>1</ele>
        <time>2021-09-29T10:25:00Z</time>
      </trkpt>
      <trkpt lat="46.56662" lon="-1.79519">
        <ele>1</ele>
        <time>2021-09-29T10:26:26Z</time>
      </trkpt>
      <trkpt lat="46.56274" lon="-1.79545">
        <ele>1.1</ele>
        <time>2021-09-29T10:35:04Z</time>
      </trkpt>
      <trkpt lat="46.56327" lon="-1.79365">
        <ele>1</ele>
        <time>2021-09-29T10:38:04Z</time>
      </trkpt>
      <trkpt lat="46.56219" lon="-1.79086">
        <ele>1</ele>
        <time>2021-09-29T10:42:58Z</time>
      </trkpt>
      <trkpt lat="46.56056" lon="-1.78921">
        <ele>1</ele>
        <time>2021-09-29T10:47:23Z</time>
      </trkpt>
      <trkpt lat="46.55859" lon="-1.78923">
        <ele>1</ele>
        <time>2021-09-29T10:51:46Z</time>
      </trkpt>
      <trkpt lat="46.55702" lon="-1.79118">
        <ele>1</ele>
        <time>2021-09-29T10:56:21Z</time>
      </trkpt>
      <trkpt lat="46.55654" lon="-1.7921">
        <ele>1</ele>
        <time>2021-09-29T10:58:07Z</time>
      </trkpt>
      <trkpt lat="46.55476" lon="-1.79133">
        <ele>2</ele>
        <time>2021-09-29T11:02:15Z</time>
      </trkpt>
      <trkpt lat="46.55426" lon="-1.79122">
        <ele>2</ele>
        <time>2021-09-29T11:03:23Z</time>
      </trkpt>
      <trkpt lat="46.55284" lon="-1.78867">
        <ele>2</ele>
        <time>2021-09-29T11:08:24Z</time>
      </trkpt>
      <trkpt lat="46.54825" lon="-1.78815">
        <ele>3</ele>
        <time>2021-09-29T11:18:38Z</time>
      </trkpt>
      <trkpt lat="46.54638" lon="-1.78948">
        <ele>1</ele>
        <time>2021-09-29T11:23:16Z</time>
      </trkpt>
      <trkpt lat="46.545" lon="-1.79234">
        <ele>1</ele>
        <time>2021-09-29T11:28:37Z</time>
      </trkpt>
      <trkpt lat="46.54332" lon="-1.79586">
        <ele>2</ele>
        <time>2021-09-29T11:35:10Z</time>
      </trkpt>
      <trkpt lat="46.54624" lon="-1.7982">
        <ele>2</ele>
        <time>2021-09-29T11:42:35Z</time>
      </trkpt>
      <trkpt lat="46.54775" lon="-1.79813">
        <ele>2</ele>
        <time>2021-09-29T11:45:56Z</time>
      </trkpt>
      <trkpt lat="46.54896" lon="-1.80041">
        <ele>4</ele>
        <time>2021-09-29T11:50:21Z</time>
      </trkpt>
      <trkpt lat="46.55085" lon="-1.80302">
        <ele>5</ele>
        <time>2021-09-29T11:56:08Z</time>
      </trkpt>
      <trkpt lat="46.55253" lon="-1.80438">
        <ele>6</ele>
        <time>2021-09-29T12:00:25Z</time>
      </trkpt>
      <trkpt lat="46.55457" lon="-1.80629">
        <ele>5</ele>
        <time>2021-09-29T12:05:49Z</time>
      </trkpt>
      <trkpt lat="46.55648" lon="-1.80815">
        <ele>5</ele>
        <time>2021-09-29T12:10:56Z</time>
      </trkpt>
      <trkpt lat="46.55792" lon="-1.80877">
        <ele>6</ele>
        <time>2021-09-29T12:14:16Z</time>
      </trkpt>
      <trkpt lat="46.56051" lon="-1.81006">
        <ele>5</ele>
        <time>2021-09-29T12:20:21Z</time>
      </trkpt>
      <trkpt lat="46.56132" lon="-1.81075">
        <ele>10</ele>
        <time>2021-09-29T12:22:27Z</time>
      </trkpt>
      <trkpt lat="46.56184" lon="-1.81013">
        <ele>8</ele>
        <time>2021-09-29T12:23:56Z</time>
      </trkpt>
      <trkpt lat="46.56335" lon="-1.80989">
        <ele>10</ele>
        <time>2021-09-29T12:27:19Z</time>
      </trkpt>
      <trkpt lat="46.56445" lon="-1.8121">
        <ele>13</ele>
        <time>2021-09-29T12:31:29Z</time>
      </trkpt>
      <trkpt lat="46.56562" lon="-1.81109">
        <ele>1</ele>
        <time>2021-09-29T12:34:31Z</time>
      </trkpt>
      <trkpt lat="46.56631" lon="-1.8098">
        <ele>1</ele>
        <time>2021-09-29T12:37:01Z</time>
      </trkpt>
      <trkpt lat="46.56725" lon="-1.80961">
        <ele>2</ele>
        <time>2021-09-29T12:39:07Z</time>
      </trkpt>
      <trkpt lat="46.5682" lon="-1.80845">
        <ele>1</ele>
        <time>2021-09-29T12:41:53Z</time>
      </trkpt>
      <trkpt lat="46.56922" lon="-1.80961">
        <ele>1</ele>
        <time>2021-09-29T12:44:46Z</time>
      </trkpt>
      <trkpt lat="46.5708" lon="-1.8088">
        <ele>1.4</ele>
        <time>2021-09-29T12:48:29Z</time>
      </trkpt>
      <trkpt lat="46.57139" lon="-1.81021">
        <ele>1</ele>
        <time>2021-09-29T12:51:01Z</time>
      </trkpt>
      <trkpt lat="46.57122" lon="-1.81105">
        <ele>1</ele>
        <time>2021-09-29T12:52:21Z</time>
      </trkpt>
      <trkpt lat="46.57243" lon="-1.81225">
        <ele>1</ele>
        <time>2021-09-29T12:55:37Z</time>
      </trkpt>
      <trkpt lat="46.57226" lon="-1.81358">
        <ele>2</ele>
        <time>2021-09-29T12:57:41Z</time>
      </trkpt>
      <trkpt lat="46.57324" lon="-1.81356">
        <ele>1</ele>
        <time>2021-09-29T12:59:51Z</time>
      </trkpt>
      <trkpt lat="46.57571" lon="-1.8109">
        <ele>1</ele>
        <time>2021-09-29T13:06:42Z</time>
      </trkpt>
      <trkpt lat="46.57811" lon="-1.80944">
        <ele>1</ele>
        <time>2021-09-29T13:12:29Z</time>
      </trkpt>
      <trkpt lat="46.58186" lon="-1.80654">
        <ele>3</ele>
        <time>2021-09-29T13:21:55Z</time>
      </trkpt>
    </trkseg>
  </trk>
</gpx>